Time;durP1;ratioP1;P1;durP2;ratioP2;P2;SDS_P1;SDS_P2;PMS_P1;PMS_P2;Temp;Humidity;BMP_temperature;BMP_pressure;BME280_temperature;BME280_humidity;BME280_pressure;Samples;Min_cycle;Max_cycle;Signal;HPM_P1;HPM_P2
2023/07/03 00:00:45;;;;;;;15.68;9.88;;;;;;;18.52;64.84;98697.41;5092986;28;20042;-45
2023/07/03 00:03:14;;;;;;;42.85;38.53;;;;;;;18.50;64.89;98702.97;5092962;28;20024;-45
2023/07/03 00:05:43;;;;;;;30.95;27.85;;;;;;;18.64;65.07;98698.06;5093186;28;20020;-45
2023/07/03 00:08:10;;;;;;;21.13;15.40;;;;;;;18.78;64.51;98695.78;5092863;28;20034;-45
2023/07/03 00:10:36;;;;;;;18.60;12.13;;;;;;;18.96;64.73;98700.75;5092842;28;20020;-45
2023/07/03 00:13:02;;;;;;;42.20;37.83;;;;;;;19.30;64.07;98692.47;5092754;28;20379;-45
2023/07/03 00:15:27;;;;;;;31.13;27.55;;;;;;;19.52;63.05;98694.19;5092763;28;20024;-45
2023/07/03 00:17:53;;;;;;;18.80;14.23;;;;;;;19.56;62.48;98695.28;5092622;28;20035;-45
2023/07/03 00:20:19;;;;;;;17.92;10.82;;;;;;;19.67;62.11;98686.25;5092673;28;20036;-45
2023/07/03 00:22:46;;;;;;;17.40;9.80;;;;;;;19.73;61.92;98690.56;5091316;28;20071;-45
2023/07/03 00:25:12;;;;;;;12.40;8.90;;;;;;;19.70;61.37;98685.75;5092780;28;20415;-45
2023/07/03 00:27:38;;;;;;;25.42;13.57;;;;;;;19.60;61.49;98693.69;5091190;28;20028;-45
2023/07/03 00:30:05;;;;;;;16.10;10.80;;;;;;;19.59;61.60;98688.63;5091129;28;20089;-45
2023/07/03 00:32:31;;;;;;;13.63;9.82;;;;;;;19.52;61.58;98689.66;5092184;28;20044;-45
2023/07/03 00:34:57;;;;;;;26.70;9.60;;;;;;;19.52;61.77;98686.22;5091084;28;20024;-45
2023/07/03 00:37:23;;;;;;;22.35;9.82;;;;;;;19.50;61.62;98685.66;5092334;28;20389;-45
2023/07/03 00:39:48;;;;;;;29.02;23.40;;;;;;;19.48;61.90;98691.25;5057515;28;20016;-45
2023/07/03 00:42:14;;;;;;;35.15;31.13;;;;;;;19.53;62.16;98685.94;5090923;28;20038;-45
2023/07/03 00:44:40;;;;;;;57.88;51.97;;;;;;;19.70;61.64;98685.75;5092267;28;20026;-45
2023/07/03 00:47:08;;;;;;;40.63;35.17;;;;;;;19.62;61.44;98686.25;5092170;28;20022;-45
2023/07/03 00:49:33;;;;;;;55.60;50.30;;;;;;;19.46;61.60;98679.25;5090881;28;20028;-45
2023/07/03 00:52:00;;;;;;;58.80;53.30;;;;;;;19.31;62.17;98682.63;5090832;28;20456;-45
2023/07/03 00:54:27;;;;;;;96.30;87.95;;;;;;;19.19;62.47;98680.16;5092006;28;20077;-45
2023/07/03 00:56:52;;;;;;;37.70;33.55;;;;;;;19.08;62.97;98689.13;5090718;28;20028;-45
2023/07/03 00:59:18;;;;;;;28.00;22.05;;;;;;;18.98;63.40;98683.75;5092019;28;20092;-45
2023/07/03 01:02:01;;;;;;;23.45;9.93;;;;;;;18.97;63.65;98682.91;5092286;28;20032;-45
2023/07/03 01:04:34;;;;;;;19.05;11.65;;;;;;;19.08;63.82;98679.28;5092121;28;20030;-45
2023/07/03 01:07:04;;;;;;;16.80;11.20;;;;;;;19.06;63.55;98685.94;5091999;28;20107;-45
2023/07/03 01:09:39;;;;;;;16.35;10.40;;;;;;;18.98;63.77;98695.19;5092564;28;20103;-45
2023/07/03 01:12:06;;;;;;;13.43;10.90;;;;;;;18.91;64.71;98690.09;5091905;28;20036;-45
2023/07/03 01:14:34;;;;;;;14.63;10.95;;;;;;;18.54;67.40;98690.78;5090705;28;20020;-45
2023/07/03 01:17:01;;;;;;;26.13;11.65;;;;;;;18.13;69.99;98692.25;5091819;28;20077;-45
2023/07/03 01:19:32;;;;;;;22.17;13.63;;;;;;;17.80;73.18;98698.47;5090512;28;20023;-45
2023/07/03 01:22:15;;;;;;;27.40;21.40;;;;;;;17.54;76.99;98690.97;5091845;28;20028;-45
2023/07/03 01:24:49;;;;;;;17.73;13.45;;;;;;;17.42;79.92;98702.75;5091867;28;20095;-45
2023/07/03 01:27:20;;;;;;;18.73;11.00;;;;;;;17.25;81.12;98700.94;5090431;28;20031;-45
2023/07/03 01:29:50;;;;;;;30.70;24.30;;;;;;;17.21;82.80;98702.47;5091808;28;20020;-45
2023/07/03 01:32:20;;;;;;;28.20;22.77;;;;;;;17.24;82.83;98694.00;5091469;28;20052;-45
2023/07/03 01:34:47;;;;;;;28.52;13.90;;;;;;;17.29;83.01;98709.22;5091632;28;20074;-45
2023/07/03 01:37:14;;;;;;;17.55;13.57;;;;;;;17.41;83.18;98699.31;5090362;28;20052;-45
2023/07/03 01:39:45;;;;;;;20.15;12.15;;;;;;;17.51;82.27;98699.44;5090273;28;20489;-45
2023/07/03 01:42:13;;;;;;;25.08;11.45;;;;;;;17.54;82.03;98704.25;5090312;28;20028;-45
2023/07/03 01:44:39;;;;;;;23.48;11.70;;;;;;;17.57;82.11;98708.28;5091607;28;20055;-45
2023/07/03 01:47:15;;;;;;;23.13;13.18;;;;;;;17.66;84.16;98712.09;5090200;28;20066;-44
2023/07/03 01:49:41;;;;;;;21.42;11.45;;;;;;;17.81;86.82;98708.84;5091605;28;20024;-44
2023/07/03 01:52:24;;;;;;;23.85;14.15;;;;;;;17.95;88.19;98706.66;5091537;28;20016;-44
2023/07/03 01:54:55;;;;;;;31.35;19.40;;;;;;;17.88;88.03;98709.50;5091585;28;20031;-45
2023/07/03 01:57:44;;;;;;;18.73;13.65;;;;;;;17.32;84.47;98693.59;5090247;28;20063;-45
2023/07/03 02:00:14;;;;;;;14.10;11.27;;;;;;;16.94;85.82;98705.78;5091535;28;20080;-45
2023/07/03 02:02:46;;;;;;;24.08;11.88;;;;;;;16.73;85.92;98711.75;5091425;28;20058;-44
2023/07/03 02:05:16;;;;;;;24.20;18.45;;;;;;;16.78;87.87;98706.53;5090182;28;20071;-45
2023/07/03 02:07:47;;;;;;;71.38;26.33;;;;;;;16.95;88.98;98710.03;5095230;28;20020;-45
2023/07/03 02:10:13;;;;;;;53.25;13.57;;;;;;;17.22;89.49;98700.63;5095140;28;20032;-45
2023/07/03 02:12:43;;;;;;;23.98;11.95;;;;;;;17.36;88.24;98705.34;5093767;28;20048;-44
2023/07/03 02:15:10;;;;;;;20.65;10.52;;;;;;;17.42;86.52;98703.56;5095084;28;20043;-45
2023/07/03 02:17:36;;;;;;;468.65;420.38;;;;;;;17.88;89.04;98698.06;5093697;28;20028;-44
2023/07/03 02:20:02;;;;;;;213.18;191.50;;;;;;;18.54;89.08;98693.44;5095123;28;20020;-44
2023/07/03 02:22:28;;;;;;;146.95;131.15;;;;;;;18.82;84.13;98702.22;5095007;28;20020;-45
2023/07/03 02:24:53;;;;;;;31.70;19.55;;;;;;;18.99;83.46;98703.94;5094898;28;20500;-45
2023/07/03 02:27:19;;;;;;;29.95;16.40;;;;;;;18.94;81.80;98702.06;5094885;28;20027;-45
2023/07/03 02:29:47;;;;;;;63.00;54.58;;;;;;;18.84;80.90;98705.44;5095317;28;20032;-45
2023/07/03 02:32:12;;;;;;;218.00;179.20;;;;;;;18.83;79.44;98698.50;5093137;28;20505;-45
2023/07/03 02:34:39;;;;;;;270.08;241.20;;;;;;;18.72;78.33;98694.94;5094705;28;20034;-45
2023/07/03 02:37:05;;;;;;;42.53;31.77;;;;;;;18.60;78.80;98691.66;5093319;28;20428;-45
2023/07/03 02:39:31;;;;;;;32.17;21.15;;;;;;;18.40;78.53;98696.78;5094502;28;20035;-44
2023/07/03 02:41:57;;;;;;;19.15;10.05;;;;;;;18.14;78.10;98693.84;5094552;28;20024;-45
2023/07/03 02:44:22;;;;;;;22.73;14.07;;;;;;;18.08;79.57;98698.31;5094537;28;20031;-45
2023/07/03 02:46:48;;;;;;;19.17;11.07;;;;;;;18.02;77.38;98693.19;5094431;28;20105;-45
2023/07/03 02:49:14;;;;;;;21.38;12.77;;;;;;;17.88;77.75;98700.72;5094461;28;20111;-44
2023/07/03 02:51:40;;;;;;;19.27;10.55;;;;;;;17.84;79.13;98694.31;5093033;28;20027;-45
2023/07/03 02:54:06;;;;;;;561.45;502.08;;;;;;;17.83;79.74;98696.16;5093002;28;20081;-44
2023/07/03 02:56:31;;;;;;;683.50;564.15;;;;;;;17.83;80.13;98700.63;5092971;28;20035;-45
2023/07/03 02:58:57;;;;;;;240.68;206.07;;;;;;;17.85;78.21;98699.38;5092776;28;20020;-45
2023/07/03 03:01:23;;;;;;;58.35;43.22;;;;;;;17.81;79.38;98710.69;5094219;28;20099;-45
2023/07/03 03:03:48;;;;;;;23.90;14.63;;;;;;;17.94;80.29;98705.84;5092875;28;20020;-45
2023/07/03 03:06:14;;;;;;;26.92;16.27;;;;;;;18.05;79.28;98711.25;5092780;28;20487;-44
2023/07/03 03:08:40;;;;;;;15.05;10.32;;;;;;;18.04;79.38;98707.81;5094003;28;20768;-44
2023/07/03 03:11:06;;;;;;;15.88;11.38;;;;;;;17.96;78.86;98705.59;5094051;28;20024;-44
2023/07/03 03:13:31;;;;;;;23.30;11.48;;;;;;;17.75;77.66;98710.63;5092653;28;20441;-44
2023/07/03 03:15:58;;;;;;;23.70;10.98;;;;;;;17.60;78.33;98707.78;5093923;28;20074;-44
2023/07/03 03:18:23;;;;;;;16.95;12.50;;;;;;;17.59;79.69;98714.16;5092661;28;20016;-44
2023/07/03 03:20:49;;;;;;;15.75;10.80;;;;;;;17.69;79.33;98713.47;5093723;28;20024;-44
2023/07/03 03:23:15;;;;;;;25.63;12.63;;;;;;;17.74;79.30;98710.88;5092485;28;20024;-44
2023/07/03 03:25:41;;;;;;;13.65;9.85;;;;;;;17.75;77.00;98702.69;5092424;28;20502;-45
2023/07/03 03:28:08;;;;;;;21.60;14.85;;;;;;;17.69;77.51;98711.63;5093691;28;20028;-44
2023/07/03 03:30:33;;;;;;;23.17;12.18;;;;;;;17.68;78.24;98712.66;5093634;28;20056;-45
2023/07/03 03:32:59;;;;;;;19.33;11.18;;;;;;;17.78;77.04;98712.78;5093398;28;20121;-44
2023/07/03 03:35:25;;;;;;;16.80;10.27;;;;;;;17.80;76.63;98707.25;5093514;28;20024;-45
2023/07/03 03:37:50;;;;;;;14.88;10.65;;;;;;;17.91;76.99;98706.34;5092062;28;20031;-45
2023/07/03 03:40:16;;;;;;;14.65;10.38;;;;;;;17.89;75.16;98719.06;5092077;28;20016;-45
2023/07/03 03:42:43;;;;;;;22.10;10.95;;;;;;;17.95;76.06;98714.63;5092406;28;20421;-45
2023/07/03 03:45:09;;;;;;;21.25;11.25;;;;;;;18.09;75.68;98715.84;5093342;28;20100;-45
2023/07/03 03:47:35;;;;;;;13.68;10.38;;;;;;;18.12;74.76;98717.22;5093310;28;20047;-45
2023/07/03 03:50:01;;;;;;;15.63;12.00;;;;;;;18.14;72.71;98707.94;5093484;28;20020;-45
2023/07/03 03:52:26;;;;;;;16.30;11.25;;;;;;;18.12;72.51;98715.34;5093242;28;20081;-45
2023/07/03 03:54:52;;;;;;;17.00;11.25;;;;;;;18.14;72.76;98715.91;5091839;28;20028;-45
2023/07/03 03:57:18;;;;;;;22.48;10.25;;;;;;;18.18;72.21;98718.88;5091783;28;20024;-45
2023/07/03 03:59:44;;;;;;;15.98;10.23;;;;;;;18.17;72.27;98711.97;5092981;28;20238;-45
2023/07/03 04:02:10;;;;;;;11.32;8.70;;;;;;;18.21;71.80;98710.41;5091658;28;20583;-45
2023/07/03 04:04:35;;;;;;;15.20;9.95;;;;;;;18.23;71.67;98704.81;5092920;28;20024;-45
2023/07/03 04:07:03;;;;;;;14.88;9.65;;;;;;;18.29;71.62;98714.44;5092966;28;20027;-45
2023/07/03 04:09:29;;;;;;;20.15;11.77;;;;;;;18.46;71.78;98714.38;5091574;28;20040;-45
2023/07/03 04:11:55;;;;;;;18.70;11.50;;;;;;;18.71;70.19;98708.47;5091463;28;20485;-45
2023/07/03 04:14:20;;;;;;;19.92;10.60;;;;;;;18.66;69.84;98713.75;5092724;28;20484;-45
2023/07/03 04:16:47;;;;;;;20.80;11.35;;;;;;;18.52;70.27;98719.47;5091454;28;20027;-45
2023/07/03 04:19:14;;;;;;;27.50;13.45;;;;;;;18.54;70.55;98722.69;5091348;28;20023;-45
2023/07/03 04:21:40;;;;;;;13.52;11.27;;;;;;;18.78;70.85;98719.72;5092705;28;20405;-45
2023/07/03 04:24:06;;;;;;;14.55;9.50;;;;;;;19.02;69.85;98717.56;5091380;28;20024;-45
2023/07/03 04:26:32;;;;;;;16.58;10.05;;;;;;;19.26;69.25;98717.19;5091289;28;20020;-45
2023/07/03 04:28:58;;;;;;;25.10;12.98;;;;;;;19.37;67.45;98716.19;5092336;28;20034;-45
2023/07/03 04:31:24;;;;;;;22.02;10.60;;;;;;;19.34;67.44;98714.03;5092107;28;20079;-45
2023/07/03 04:33:50;;;;;;;15.18;11.45;;;;;;;19.22;67.07;98716.91;5092563;28;20410;-45
2023/07/03 04:36:20;;;;;;;21.17;11.13;;;;;;;19.18;67.57;98715.81;5091115;28;20033;-45
2023/07/03 04:38:46;;;;;;;13.70;10.00;;;;;;;19.03;66.91;98721.00;5092320;28;20077;-45
2023/07/03 04:41:12;;;;;;;18.45;10.45;;;;;;;18.81;67.68;98723.75;5092382;28;20016;-45
2023/07/03 04:43:44;;;;;;;15.57;9.23;;;;;;;18.86;67.61;98724.59;5092259;28;20020;-45
2023/07/03 04:46:12;;;;;;;27.25;10.93;;;;;;;19.16;68.20;98728.56;5092537;28;20032;-45
2023/07/03 04:48:39;;;;;;;26.42;10.32;;;;;;;19.28;66.92;98725.72;5092179;28;20020;-45
2023/07/03 04:51:04;;;;;;;21.70;11.70;;;;;;;19.48;66.88;98723.19;5090908;28;20058;-45
2023/07/03 04:53:39;;;;;;;18.15;10.43;;;;;;;19.74;65.49;98726.81;5092132;28;20057;-45
2023/07/03 04:56:05;;;;;;;14.95;10.30;;;;;;;19.92;65.24;98722.91;5090871;28;20044;-45
2023/07/03 04:58:30;;;;;;;15.95;10.10;;;;;;;20.32;64.54;98733.94;5092024;28;20024;-45
2023/07/03 05:00:56;;;;;;;22.65;10.85;;;;;;;20.78;63.61;98728.69;5090844;28;20108;-45
2023/07/03 05:03:22;;;;;;;18.60;10.27;;;;;;;21.00;61.17;98725.75;5092362;28;20063;-45
2023/07/03 05:05:47;;;;;;;24.23;10.63;;;;;;;21.18;61.64;98728.97;5090673;28;20024;-45
2023/07/03 05:08:13;;;;;;;17.73;9.80;;;;;;;21.62;60.52;98731.84;5092026;28;20035;-45
2023/07/03 05:10:39;;;;;;;15.20;9.57;;;;;;;21.88;59.41;98731.75;5090593;28;20028;-45
2023/07/03 05:13:04;;;;;;;19.80;10.15;;;;;;;21.99;58.66;98735.19;5091924;28;20047;-45
2023/07/03 05:15:31;;;;;;;21.70;10.07;;;;;;;22.06;58.04;98738.38;5091891;28;20020;-45
2023/07/03 05:17:57;;;;;;;21.90;10.32;;;;;;;22.07;57.27;98740.78;5091799;28;20021;-45
2023/07/03 05:20:25;;;;;;;25.95;10.30;;;;;;;22.29;56.90;98740.41;5090467;28;20028;-46
2023/07/03 05:22:51;;;;;;;19.25;11.05;;;;;;;22.57;56.67;98740.00;5091761;28;20044;-45
2023/07/03 05:25:18;;;;;;;28.55;11.35;;;;;;;22.96;55.41;98737.31;5090477;28;20025;-46
2023/07/03 05:27:45;;;;;;;23.25;10.75;;;;;;;23.35;54.10;98739.13;5090457;28;20498;-45
2023/07/03 05:30:12;;;;;;;16.33;10.32;;;;;;;23.37;53.38;98745.00;5090408;28;20119;-45
2023/07/03 05:32:38;;;;;;;20.85;10.02;;;;;;;23.47;53.55;98744.09;5091422;28;20044;-46
2023/07/03 05:35:05;;;;;;;31.92;11.18;;;;;;;23.52;52.58;98749.38;5090373;28;20031;-45
2023/07/03 05:37:31;;;;;;;26.92;9.95;;;;;;;23.73;52.52;98747.28;5091664;28;20032;-45
2023/07/03 05:39:57;;;;;;;27.58;10.77;;;;;;;24.24;51.82;98752.06;5091566;28;20482;-45
2023/07/03 05:42:23;;;;;;;37.22;10.38;;;;;;;24.68;50.94;98752.81;5095644;28;20020;-45
2023/07/03 05:44:49;;;;;;;13.68;10.15;;;;;;;24.99;49.39;98750.47;5094377;28;20115;-45
2023/07/03 05:47:16;;;;;;;15.75;9.13;;;;;;;25.25;48.37;98750.84;5094633;28;20529;-45
2023/07/03 05:49:42;;;;;;;15.02;10.00;;;;;;;26.15;46.43;98750.50;5095644;28;20146;-45
2023/07/03 05:52:09;;;;;;;18.48;9.63;;;;;;;26.88;44.40;98751.31;5095834;28;20099;-45
2023/07/03 05:54:34;;;;;;;27.33;10.80;;;;;;;26.46;44.82;98752.50;5095736;28;20422;-46
2023/07/03 05:57:04;;;;;;;20.73;10.10;;;;;;;26.01;45.80;98755.09;5094173;28;20062;-45
2023/07/03 05:59:31;;;;;;;21.77;11.35;;;;;;;25.61;46.78;98774.38;5095292;28;20107;-45
2023/07/03 06:01:57;;;;;;;23.52;9.70;;;;;;;25.45;47.25;98773.06;5094077;28;20028;-45
2023/07/03 06:04:23;;;;;;;31.05;10.75;;;;;;;25.38;47.92;98764.59;5095207;28;20439;-46
2023/07/03 06:06:55;;;;;;;29.58;10.38;;;;;;;25.51;47.68;98766.50;5095238;28;20027;-46
2023/07/03 06:09:24;;;;;;;19.23;10.25;;;;;;;25.48;47.42;98767.13;5095226;28;20485;-45
2023/07/03 06:11:50;;;;;;;22.88;10.18;;;;;;;25.43;47.25;98767.19;5093881;28;20443;-46
2023/07/03 06:14:18;;;;;;;21.45;10.15;;;;;;;25.30;47.00;98771.44;5093828;28;20557;-46
2023/07/03 06:16:45;;;;;;;29.58;10.93;;;;;;;25.28;47.52;98766.38;5093804;28;20103;-45
2023/07/03 06:19:12;;;;;;;23.38;10.02;;;;;;;25.46;47.35;98772.00;5093666;28;20039;-45
2023/07/03 06:21:39;;;;;;;19.30;10.30;;;;;;;25.55;46.94;98774.78;5095001;28;20020;-45
2023/07/03 06:24:05;;;;;;;15.40;9.20;;;;;;;25.24;47.24;98769.94;5093589;28;20028;-45
2023/07/03 06:26:33;;;;;;;15.82;9.27;;;;;;;25.27;46.63;98770.16;5094916;28;20062;-46
2023/07/03 06:29:00;;;;;;;31.08;10.50;;;;;;;25.11;46.93;98777.66;5094860;28;20495;-46
2023/07/03 06:31:26;;;;;;;37.17;11.30;;;;;;;25.09;47.57;98774.47;5094468;28;20044;-45
2023/07/03 06:33:52;;;;;;;33.13;11.10;;;;;;;25.13;46.74;98766.59;5094704;28;20506;-46
2023/07/03 06:36:21;;;;;;;28.83;11.07;;;;;;;25.11;47.13;98776.81;5094930;28;20024;-45
2023/07/03 06:38:53;;;;;;;14.00;9.07;;;;;;;25.10;46.18;98780.63;5094844;28;20024;-46
2023/07/03 06:41:20;;;;;;;39.50;11.10;;;;;;;25.12;47.15;98778.44;5093349;28;20044;-46
2023/07/03 06:43:46;;;;;;;17.60;8.95;;;;;;;25.25;46.13;98782.28;5094620;28;20020;-45
2023/07/03 06:46:12;;;;;;;25.25;10.15;;;;;;;25.08;46.05;98778.22;5093217;28;20020;-45
2023/07/03 06:48:38;;;;;;;18.88;9.20;;;;;;;25.05;46.67;98775.31;5094632;28;20521;-46
2023/07/03 06:51:06;;;;;;;20.52;9.35;;;;;;;25.18;45.63;98779.94;5094400;28;20028;-45
2023/07/03 06:53:32;;;;;;;21.90;10.15;;;;;;;25.21;45.25;98779.41;5093139;28;20029;-46
2023/07/03 06:55:59;;;;;;;22.77;9.65;;;;;;;25.42;44.38;98773.66;5092980;28;20036;-45
2023/07/03 06:58:26;;;;;;;19.65;9.07;;;;;;;25.61;44.21;98769.00;5094131;28;20526;-45
2023/07/03 07:00:51;;;;;;;23.65;7.68;;;;;;;25.77;43.14;98771.41;5094251;28;20028;-45
2023/07/03 07:03:17;;;;;;;18.77;8.35;;;;;;;25.78;42.59;98773.81;5094200;28;20024;-45
2023/07/03 07:05:43;;;;;;;22.30;8.27;;;;;;;25.99;42.67;98774.22;5092806;28;20035;-45
2023/07/03 07:08:16;;;;;;;16.02;7.85;;;;;;;26.36;41.32;98767.00;5092821;28;20447;-45
2023/07/03 07:10:43;;;;;;;21.73;9.60;;;;;;;26.58;40.70;98770.84;5094643;28;20438;-45
2023/07/03 07:13:09;;;;;;;20.98;8.93;;;;;;;26.73;41.15;98772.41;5093992;28;20016;-46
2023/07/03 07:15:36;;;;;;;18.92;8.10;;;;;;;27.04;40.06;98769.78;5093950;28;20094;-46
2023/07/03 07:18:02;;;;;;;15.15;7.85;;;;;;;27.23;39.98;98766.88;5075808;28;20020;-46
2023/07/03 07:20:27;;;;;;;19.05;8.02;;;;;;;27.35;39.21;98777.13;5092499;28;20057;-45
2023/07/03 07:22:53;;;;;;;14.50;7.45;;;;;;;27.76;38.37;98768.72;5092617;28;20063;-46
2023/07/03 07:25:19;;;;;;;13.88;7.45;;;;;;;28.23;37.08;98770.94;5093725;28;20031;-45
2023/07/03 07:27:44;;;;;;;25.30;8.43;;;;;;;28.34;36.63;98780.34;5093736;28;20082;-45
2023/07/03 07:30:11;;;;;;;19.58;8.40;;;;;;;28.04;36.73;98776.63;5093658;28;20024;-45
2023/07/03 07:32:36;;;;;;;19.13;6.85;;;;;;;28.18;36.59;98777.28;5092204;28;20075;-45
2023/07/03 07:35:02;;;;;;;26.48;8.57;;;;;;;28.26;36.46;98787.31;5092252;28;20462;-46
2023/07/03 07:37:28;;;;;;;19.38;7.88;;;;;;;28.36;36.23;98783.50;5092220;28;20379;-46
2023/07/03 07:39:54;;;;;;;16.73;7.88;;;;;;;28.52;35.91;98788.50;5093375;28;20023;-46
2023/07/03 07:42:19;;;;;;;18.55;7.20;;;;;;;28.76;35.16;98782.63;5093615;28;20086;-45
2023/07/03 07:44:48;;;;;;;17.52;6.95;;;;;;;28.97;33.73;98780.06;5093433;28;20490;-46
2023/07/03 07:47:14;;;;;;;12.00;6.53;;;;;;;29.06;33.60;98780.84;5093336;28;20111;-46
2023/07/03 07:49:41;;;;;;;16.17;6.05;;;;;;;29.24;32.95;98790.53;5093309;28;20123;-46
2023/07/03 07:52:07;;;;;;;12.25;6.30;;;;;;;29.67;32.64;98788.81;5093245;28;20028;-46
2023/07/03 07:54:33;;;;;;;13.68;6.63;;;;;;;30.09;32.07;98794.38;5093243;28;20096;-46
2023/07/03 07:56:59;;;;;;;12.70;6.30;;;;;;;30.34;31.82;98786.44;5093062;28;20549;-46
2023/07/03 07:59:25;;;;;;;15.40;5.65;;;;;;;30.77;30.74;98786.09;5091727;28;20027;-45
2023/07/03 08:01:51;;;;;;;19.23;5.88;;;;;;;31.04;30.29;98782.03;5091782;28;20481;-46
2023/07/03 08:04:17;;;;;;;19.25;6.40;;;;;;;31.25;29.76;98776.56;5092672;28;20032;-45
2023/07/03 08:06:43;;;;;;;15.57;6.07;;;;;;;31.30;29.43;98785.63;5092925;28;20035;-45
2023/07/03 08:09:08;;;;;;;11.18;5.15;;;;;;;31.29;28.81;98786.72;5091642;28;20024;-45
2023/07/03 08:11:34;;;;;;;13.45;6.28;;;;;;;31.61;28.68;98774.25;5092902;28;20035;-45
2023/07/03 08:14:00;;;;;;;13.38;6.88;;;;;;;32.10;27.80;98779.72;5092859;28;20069;-45
2023/07/03 08:16:25;;;;;;;11.80;5.38;;;;;;;32.09;27.30;98783.56;5092780;28;20032;-46
2023/07/03 08:18:51;;;;;;;14.23;5.60;;;;;;;32.12;27.80;98785.59;5091353;28;20166;-46
2023/07/03 08:21:17;;;;;;;13.55;5.57;;;;;;;32.09;28.08;98788.22;5092664;28;20031;-45
2023/07/03 08:23:43;;;;;;;17.15;6.32;;;;;;;32.12;27.86;98780.19;5074591;28;20020;-46
2023/07/03 08:26:18;;;;;;;32.28;7.28;;;;;;;32.15;27.80;98784.13;5092586;28;20024;-46
2023/07/03 08:28:43;;;;;;;13.43;5.60;;;;;;;32.09;27.59;98783.56;5092604;28;20024;-46
2023/07/03 08:31:09;;;;;;;16.35;6.57;;;;;;;32.06;28.04;98786.19;5092233;28;20048;-46
2023/07/03 08:33:35;;;;;;;9.57;6.13;;;;;;;33.09;26.79;98766.66;5074586;28;20097;-46
2023/07/03 08:36:00;;;;;;;12.18;5.78;;;;;;;34.45;25.17;98779.19;5091182;28;20436;-46
2023/07/03 08:38:26;;;;;;;15.65;6.50;;;;;;;34.94;24.87;98775.91;5092317;28;20020;-46
2023/07/03 08:41:00;;;;;;;17.27;6.22;;;;;;;35.98;23.60;98775.75;5091190;28;20020;-46
2023/07/03 08:43:42;;;;;;;9.82;5.35;;;;;;;36.75;22.87;98775.59;5092304;28;20030;-46
2023/07/03 08:46:13;;;;;;;14.43;6.03;;;;;;;37.32;21.74;98780.88;5092256;28;20020;-46
2023/07/03 08:48:41;;;;;;;17.50;5.72;;;;;;;37.72;20.08;98777.31;5092358;28;20039;-46
2023/07/03 08:51:12;;;;;;;17.52;6.00;;;;;;;37.86;20.33;98782.09;5092216;28;20012;-46
2023/07/03 08:53:41;;;;;;;13.98;5.22;;;;;;;37.57;20.69;98776.41;5092241;28;20464;-46
2023/07/03 08:56:17;;;;;;;18.35;5.93;;;;;;;36.86;20.69;98781.97;5092097;28;20645;-46
2023/07/03 08:58:49;;;;;;;11.68;5.45;;;;;;;37.53;20.14;98785.75;5090776;28;20024;-46
2023/07/03 09:01:31;;;;;;;15.10;6.05;;;;;;;38.74;19.63;98782.97;5092067;28;20024;-46
2023/07/03 09:04:12;;;;;;;23.33;6.15;;;;;;;39.51;18.68;98780.00;5092128;28;20056;-46
2023/07/03 09:07:16;;;;;;;19.40;6.03;;;;;;;40.78;17.79;98777.75;5090924;28;20028;-46
2023/07/03 09:10:16;;;;;;;15.45;5.22;;;;;;;41.08;17.65;98777.16;5078550;28;20040;-46
2023/07/03 09:13:04;;;;;;;16.27;5.40;;;;;;;39.80;17.95;98774.47;5091907;28;20028;-47
2023/07/03 09:15:55;;;;;;;12.98;5.72;;;;;;;38.49;19.03;98784.81;5082631;28;20115;-46
2023/07/03 09:18:27;;;;;;;13.55;5.43;;;;;;;38.66;19.00;98784.13;5091457;28;20134;-46
2023/07/03 09:20:55;;;;;;;19.42;6.85;;;;;;;37.08;19.80;98785.72;5091936;28;20036;-46
2023/07/03 09:23:26;;;;;;;13.85;5.20;;;;;;;37.55;20.13;98775.19;5091926;28;20032;-46
2023/07/03 09:26:15;;;;;;;35.80;7.13;;;;;;;39.05;19.53;98774.44;5091882;28;20024;-46
2023/07/03 09:28:42;;;;;;;20.52;5.20;;;;;;;40.63;17.73;98772.31;5091287;28;20123;-47
2023/07/03 09:31:08;;;;;;;16.60;5.55;;;;;;;41.31;17.27;98773.84;5073432;28;20047;-46
2023/07/03 09:33:34;;;;;;;14.45;5.38;;;;;;;40.63;17.53;98775.06;5091862;28;20059;-47
2023/07/03 09:36:18;;;;;;;16.55;5.60;;;;;;;38.45;19.34;98781.28;5091748;28;20048;-46
2023/07/03 09:38:44;;;;;;;14.98;5.15;;;;;;;35.79;21.16;98789.50;5091693;28;20035;-46
2023/07/03 09:41:10;;;;;;;21.80;6.57;;;;;;;33.75;23.08;98803.31;5090352;28;20494;-46
2023/07/03 09:43:43;;;;;;;17.42;4.57;;;;;;;32.17;25.05;98801.66;5091696;28;20070;-45
2023/07/03 09:46:14;;;;;;;18.90;5.97;;;;;;;30.77;26.75;98809.69;5091666;28;20028;-46
2023/07/03 09:48:40;;;;;;;32.78;6.18;;;;;;;30.06;27.84;98809.34;5091602;28;20020;-46
2023/07/03 09:51:18;;;;;;;12.13;4.88;;;;;;;29.96;28.14;98814.31;5091555;28;20024;-45
2023/07/03 09:53:44;;;;;;;12.30;5.43;;;;;;;29.99;28.26;98814.47;5091644;28;20047;-45
2023/07/03 09:56:16;;;;;;;13.63;4.72;;;;;;;30.33;27.12;98803.81;5090178;28;20493;-45
2023/07/03 09:58:47;;;;;;;14.20;5.45;;;;;;;30.52;27.46;98806.06;5091471;28;20051;-45
2023/07/03 10:01:33;;;;;;;10.63;5.70;;;;;;;30.58;27.79;98808.22;5091767;28;20374;-46
2023/07/03 10:04:06;;;;;;;9.68;5.15;;;;;;;30.95;27.08;98807.63;5090188;28;20031;-45
2023/07/03 10:06:33;;;;;;;7.07;4.47;;;;;;;31.00;26.70;98807.44;5091706;28;20051;-46
2023/07/03 10:09:03;;;;;;;14.65;6.50;;;;;;;31.26;27.01;98805.25;5091437;28;20032;-46
2023/07/03 10:11:57;;;;;;;14.40;4.90;;;;;;;31.71;26.39;98802.88;5091332;28;20073;-45
2023/07/03 10:14:31;;;;;;;10.05;4.57;;;;;;;32.31;25.74;98804.00;5091075;28;20028;-45
2023/07/03 10:17:00;;;;;;;20.63;5.28;;;;;;;32.97;25.07;98802.03;5090064;28;20028;-45
2023/07/03 10:19:25;;;;;;;22.20;9.75;;;;;;;33.65;24.02;98803.06;5090062;28;20032;-46
2023/07/03 10:21:52;;;;;;;13.10;5.30;;;;;;;34.52;23.43;98798.44;5091323;28;20020;-46
2023/07/03 10:24:19;;;;;;;7.93;4.28;;;;;;;35.58;22.26;98796.16;5089951;28;20024;-46
2023/07/03 10:26:50;;;;;;;18.23;6.05;;;;;;;36.75;21.51;98801.00;5090866;28;20039;-46
2023/07/03 10:29:30;;;;;;;13.75;5.45;;;;;;;37.57;20.42;98800.28;5094820;28;20020;-46
2023/07/03 10:32:08;;;;;;;19.35;5.82;;;;;;;38.09;19.48;98792.06;5093238;28;20051;-46
2023/07/03 10:34:43;;;;;;;6.15;4.60;;;;;;;39.59;18.75;98801.97;5093574;28;20568;-47
2023/07/03 10:37:12;;;;;;;11.90;4.90;;;;;;;39.36;17.91;98805.84;5093416;28;20039;-46
2023/07/03 10:39:42;;;;;;;9.57;4.10;;;;;;;39.08;18.61;98803.84;5094557;28;20095;-46
2023/07/03 10:42:25;;;;;;;9.95;4.55;;;;;;;38.91;18.42;98808.88;5093319;28;20103;-46
2023/07/03 10:44:57;;;;;;;9.60;4.82;;;;;;;38.20;19.23;98803.09;5094689;28;20027;-47
2023/07/03 10:47:54;;;;;;;17.17;4.63;;;;;;;37.21;20.41;98804.63;5093280;28;20031;-46
2023/07/03 10:50:31;;;;;;;7.88;4.38;;;;;;;36.56;19.99;98804.66;5077122;28;20155;-46
2023/07/03 10:53:00;;;;;;;10.55;4.55;;;;;;;36.18;20.77;98802.97;5094445;28;20398;-45
2023/07/03 10:55:42;;;;;;;16.17;5.25;;;;;;;36.00;21.15;98811.69;5093070;28;20036;-46
2023/07/03 10:58:43;;;;;;;16.40;4.60;;;;;;;35.87;21.21;98813.03;5094230;28;20027;-46
2023/07/03 11:01:23;;;;;;;12.15;4.65;;;;;;;35.64;21.68;98813.03;5060310;28;20044;-46
2023/07/03 11:04:09;;;;;;;16.42;4.65;;;;;;;35.92;21.38;98815.47;5094305;28;20547;-45
2023/07/03 11:06:51;;;;;;;14.30;5.05;;;;;;;35.64;21.77;98820.41;5094239;28;20024;-45
2023/07/03 11:09:30;;;;;;;19.13;6.68;;;;;;;35.45;22.00;98815.81;5094346;28;20027;-46
2023/07/03 11:12:13;;;;;;;12.30;5.20;;;;;;;35.19;22.50;98826.31;5076822;28;20059;-45
2023/07/03 11:15:17;;;;;;;12.25;5.75;;;;;;;35.27;22.30;98812.78;5092753;28;20024;-46
2023/07/03 11:18:29;;;;;;;40.83;10.87;;;;;;;35.92;22.18;98809.19;5031582;28;20404;-46
2023/07/03 11:21:35;;;;;;;20.00;8.45;;;;;;;37.01;20.81;98799.34;5031525;28;20408;-46
2023/07/03 11:24:13;;;;;;;12.20;5.15;;;;;;;36.50;20.60;98817.09;5014824;28;20037;-46
2023/07/03 11:26:41;;;;;;;17.52;4.93;;;;;;;35.24;22.02;98808.84;5014910;28;20041;-46
2023/07/03 11:29:10;;;;;;;16.38;5.40;;;;;;;34.67;22.86;98813.16;5014695;28;20025;-46
2023/07/03 11:31:39;;;;;;;23.75;5.93;;;;;;;34.44;23.09;98813.84;5014308;28;20052;-46